sensor_id;sensor_type;location;lat;lon;timestamp;pressure;altitude;pressure_sealevel;temperature;humidity
25869;BME280;13688;53.154;18.136;2024-03-23T00:56:55;99933.48;;;6.82;100.00
25869;BME280;13688;53.154;18.136;2024-03-23T01:02:17;99931.54;;;6.84;100.00
25869;BME280;13688;53.154;18.136;2024-03-23T01:07:40;99930.69;;;6.83;100.00
25869;BME280;13688;53.154;18.136;2024-03-23T01:13:02;99936.16;;;6.82;100.00
25869;BME280;13688;53.154;18.136;2024-03-23T01:18:25;99934.33;;;6.82;100.00
25869;BME280;13688;53.154;18.136;2024-03-23T01:23:47;99934.69;;;6.78;100.00
25869;BME280;13688;53.154;18.136;2024-03-23T01:29:09;99944.97;;;6.71;100.00
25869;BME280;13688;53.154;18.136;2024-03-23T01:34:32;99950.55;;;6.68;100.00
25869;BME280;13688;53.154;18.136;2024-03-23T01:39:55;99937.92;;;6.70;100.00
25869;BME280;13688;53.154;18.136;2024-03-23T01:45:18;99941.69;;;6.68;100.00
25869;BME280;13688;53.154;18.136;2024-03-23T01:50:41;99931.61;;;6.71;100.00
25869;BME280;13688;53.154;18.136;2024-03-23T01:56:03;99935.14;;;6.72;100.00
25869;BME280;13688;53.154;18.136;2024-03-23T02:01:25;99938.54;;;6.74;100.00
25869;BME280;13688;53.154;18.136;2024-03-23T02:06:48;99937.36;;;6.78;100.00
25869;BME280;13688;53.154;18.136;2024-03-23T02:12:10;99938.54;;;6.74;100.00
25869;BME280;13688;53.154;18.136;2024-03-23T02:17:34;99938.05;;;6.69;100.00
25869;BME280;13688;53.154;18.136;2024-03-23T02:22:58;99929.06;;;6.70;100.00
25869;BME280;13688;53.154;18.136;2024-03-23T02:28:20;99925.42;;;6.71;100.00
25869;BME280;13688;53.154;18.136;2024-03-23T02:33:43;99910.48;;;6.68;100.00
25869;BME280;13688;53.154;18.136;2024-03-23T02:39:05;99911.54;;;6.66;100.00
25869;BME280;13688;53.154;18.136;2024-03-23T02:44:28;99910.48;;;6.68;100.00
25869;BME280;13688;53.154;18.136;2024-03-23T02:49:50;99894.66;;;6.65;100.00
25869;BME280;13688;53.154;18.136;2024-03-23T02:55:14;99896.88;;;6.71;100.00
25869;BME280;13688;53.154;18.136;2024-03-23T03:00:36;99883.65;;;6.70;100.00
25869;BME280;13688;53.154;18.136;2024-03-23T03:06:02;99872.84;;;6.71;100.00
25869;BME280;13688;53.154;18.136;2024-03-23T03:11:25;99865.67;;;6.72;100.00
25869;BME280;13688;53.154;18.136;2024-03-23T03:16:47;99849.16;;;6.67;100.00
25869;BME280;13688;53.154;18.136;2024-03-23T03:22:09;99856.33;;;6.66;100.00
25869;BME280;13688;53.154;18.136;2024-03-23T03:27:32;99847.63;;;6.51;100.00
25869;BME280;13688;53.154;18.136;2024-03-23T03:32:55;99833.30;;;6.52;100.00
25869;BME280;13688;53.154;18.136;2024-03-23T03:38:18;99834.64;;;6.47;100.00
25869;BME280;13688;53.154;18.136;2024-03-23T03:43:40;99831.08;;;6.46;100.00
25869;BME280;13688;53.154;18.136;2024-03-23T03:49:03;99828.05;;;6.40;100.00
25869;BME280;13688;53.154;18.136;2024-03-23T03:54:27;99832.41;;;6.41;100.00
25869;BME280;13688;53.154;18.136;2024-03-23T03:59:50;99831.56;;;6.40;100.00
25869;BME280;13688;53.154;18.136;2024-03-23T04:05:14;99830.06;;;6.36;100.00
25869;BME280;13688;53.154;18.136;2024-03-23T04:10:36;99827.39;;;6.36;100.00
25869;BME280;13688;53.154;18.136;2024-03-23T04:16:02;99827.07;;;6.41;100.00
25869;BME280;13688;53.154;18.136;2024-03-23T04:21:24;99828.05;;;6.40;100.00
25869;BME280;13688;53.154;18.136;2024-03-23T04:26:48;99813.84;;;6.39;100.00
25869;BME280;13688;53.154;18.136;2024-03-23T04:32:10;99803.65;;;6.44;100.00
25869;BME280;13688;53.154;18.136;2024-03-23T04:37:33;99811.78;;;6.43;100.00
25869;BME280;13688;53.154;18.136;2024-03-23T04:42:55;99804.73;;;6.42;100.00
25869;BME280;13688;53.154;18.136;2024-03-23T04:48:21;99802.92;;;6.42;100.00
25869;BME280;13688;53.154;18.136;2024-03-23T04:53:44;99804.86;;;6.40;100.00
25869;BME280;13688;53.154;18.136;2024-03-23T04:59:06;99807.77;;;6.37;100.00
25869;BME280;13688;53.154;18.136;2024-03-23T05:04:29;99807.01;;;6.35;100.00
25869;BME280;13688;53.154;18.136;2024-03-23T05:09:52;99804.81;;;6.29;100.00
25869;BME280;13688;53.154;18.136;2024-03-23T05:15:14;99795.55;;;6.22;100.00
25869;BME280;13688;53.154;18.136;2024-03-23T05:20:37;99785.61;;;6.24;100.00
25869;BME280;13688;53.154;18.136;2024-03-23T05:26:00;99774.48;;;6.30;100.00
25869;BME280;13688;53.154;18.136;2024-03-23T05:31:29;99765.63;;;6.29;100.00
25869;BME280;13688;53.154;18.136;2024-03-23T05:36:52;99761.98;;;6.30;100.00
25869;BME280;13688;53.154;18.136;2024-03-23T05:42:18;99760.00;;;6.21;100.00
25869;BME280;13688;53.154;18.136;2024-03-23T05:47:41;99746.78;;;6.20;100.00
25869;BME280;13688;53.154;18.136;2024-03-23T05:53:05;99752.03;;;6.33;100.00
25869;BME280;13688;53.154;18.136;2024-03-23T05:58:28;99747.21;;;6.38;100.00
25869;BME280;13688;53.154;18.136;2024-03-23T06:03:50;99704.64;;;6.47;100.00
25869;BME280;13688;53.154;18.136;2024-03-23T06:09:13;99692.15;;;6.59;100.00
25869;BME280;13688;53.154;18.136;2024-03-23T06:14:35;99672.02;;;6.66;100.00
25869;BME280;13688;53.154;18.136;2024-03-23T06:19:59;99684.40;;;6.67;100.00
25869;BME280;13688;53.154;18.136;2024-03-23T06:25:22;99710.56;;;6.40;100.00
25869;BME280;13688;53.154;18.136;2024-03-23T06:30:45;99702.91;;;6.46;100.00
25869;BME280;13688;53.154;18.136;2024-03-23T06:36:12;99713.59;;;6.46;100.00
25869;BME280;13688;53.154;18.136;2024-03-23T06:41:32;99703.17;;;6.54;100.00
25869;BME280;13688;53.154;18.136;2024-03-23T06:46:56;99696.64;;;6.58;100.00
25869;BME280;13688;53.154;18.136;2024-03-23T06:52:18;99690.71;;;6.66;100.00
25869;BME280;13688;53.154;18.136;2024-03-23T06:57:41;99691.91;;;6.73;100.00
25869;BME280;13688;53.154;18.136;2024-03-23T07:03:03;99685.25;;;6.79;100.00
25869;BME280;13688;53.154;18.136;2024-03-23T07:08:26;99685.25;;;6.79;100.00
25869;BME280;13688;53.154;18.136;2024-03-23T07:13:49;99671.77;;;6.80;100.00
25869;BME280;13688;53.154;18.136;2024-03-23T07:19:24;99664.13;;;6.87;100.00
25869;BME280;13688;53.154;18.136;2024-03-23T07:24:47;99674.69;;;6.77;100.00
25869;BME280;13688;53.154;18.136;2024-03-23T07:30:09;99673.92;;;6.64;100.00
25869;BME280;13688;53.154;18.136;2024-03-23T07:35:32;99682.89;;;6.41;100.00
25869;BME280;13688;53.154;18.136;2024-03-23T07:41:04;99667.97;;;6.38;100.00
25869;BME280;13688;53.154;18.136;2024-03-23T07:46:28;99666.63;;;6.55;100.00
25869;BME280;13688;53.154;18.136;2024-03-23T07:51:51;99667.61;;;6.65;100.00
25869;BME280;13688;53.154;18.136;2024-03-23T07:57:13;99660.19;;;6.46;100.00
25869;BME280;13688;53.154;18.136;2024-03-23T08:02:36;99652.98;;;6.24;100.00
25869;BME280;13688;53.154;18.136;2024-03-23T08:07:59;99644.50;;;6.19;100.00
25869;BME280;13688;53.154;18.136;2024-03-23T08:13:22;99629.09;;;6.23;100.00
25869;BME280;13688;53.154;18.136;2024-03-23T08:18:44;99634.09;;;6.27;100.00
25869;BME280;13688;53.154;18.136;2024-03-23T08:24:08;99624.02;;;6.42;100.00
25869;BME280;13688;53.154;18.136;2024-03-23T08:29:31;99623.17;;;6.42;100.00
25869;BME280;13688;53.154;18.136;2024-03-23T08:34:53;99606.56;;;6.60;100.00
25869;BME280;13688;53.154;18.136;2024-03-23T08:40:16;99603.16;;;6.47;100.00
25869;BME280;13688;53.154;18.136;2024-03-23T08:45:39;99574.25;;;6.64;100.00
25869;BME280;13688;53.154;18.136;2024-03-23T08:51:09;99593.80;;;6.86;100.00
25869;BME280;13688;53.154;18.136;2024-03-23T08:56:32;99575.10;;;6.64;100.00
25869;BME280;13688;53.154;18.136;2024-03-23T09:01:55;99602.27;;;6.24;100.00
25869;BME280;13688;53.154;18.136;2024-03-23T09:07:19;99606.36;;;5.71;100.00
25869;BME280;13688;53.154;18.136;2024-03-23T09:12:41;99595.95;;;5.44;100.00
25869;BME280;13688;53.154;18.136;2024-03-23T09:18:05;99578.30;;;5.54;100.00
25869;BME280;13688;53.154;18.136;2024-03-23T09:23:28;99554.50;;;5.86;100.00
25869;BME280;13688;53.154;18.136;2024-03-23T09:28:51;99549.27;;;6.20;100.00
25869;BME280;13688;53.154;18.136;2024-03-23T09:34:13;99551.67;;;6.12;100.00
25869;BME280;13688;53.154;18.136;2024-03-23T09:39:36;99555.52;;;5.96;100.00
25869;BME280;13688;53.154;18.136;2024-03-23T09:44:59;99547.20;;;5.77;100.00
25869;BME280;13688;53.154;18.136;2024-03-23T09:50:23;99535.95;;;5.85;100.00
25869;BME280;13688;53.154;18.136;2024-03-23T09:55:54;99530.19;;;5.91;100.00
25869;BME280;13688;53.154;18.136;2024-03-23T10:01:10;99530.49;;;5.86;100.00
25869;BME280;13688;53.154;18.136;2024-03-23T10:06:32;99519.53;;;6.13;100.00
25869;BME280;13688;53.154;18.136;2024-03-23T10:12:07;99514.61;;;5.85;100.00
25869;BME280;13688;53.154;18.136;2024-03-23T10:17:29;99529.33;;;5.55;100.00
25869;BME280;13688;53.154;18.136;2024-03-23T10:22:52;99520.54;;;5.31;100.00
25869;BME280;13688;53.154;18.136;2024-03-23T10:28:15;99519.48;;;5.44;100.00
25869;BME280;13688;53.154;18.136;2024-03-23T10:33:43;99516.58;;;5.48;100.00
25869;BME280;13688;53.154;18.136;2024-03-23T10:39:05;99504.31;;;5.80;100.00
25869;BME280;13688;53.154;18.136;2024-03-23T10:44:32;99504.65;;;5.75;100.00
25869;BME280;13688;53.154;18.136;2024-03-23T10:49:54;99488.53;;;5.88;100.00
25869;BME280;13688;53.154;18.136;2024-03-23T10:55:17;99489.87;;;5.83;100.00
25869;BME280;13688;53.154;18.136;2024-03-23T11:00:42;99480.59;;;5.99;100.00
25869;BME280;13688;53.154;18.136;2024-03-23T11:06:05;99456.83;;;6.19;100.00
25869;BME280;13688;53.154;18.136;2024-03-23T11:11:30;99455.96;;;6.29;100.00
25869;BME280;13688;53.154;18.136;2024-03-23T11:17:08;99439.95;;;6.29;100.00
25869;BME280;13688;53.154;18.136;2024-03-23T11:22:38;99444.31;;;6.30;100.00
25869;BME280;13688;53.154;18.136;2024-03-23T11:28:13;99410.52;;;6.52;100.00
25869;BME280;13688;53.154;18.136;2024-03-23T11:33:33;99421.33;;;6.50;100.00
25869;BME280;13688;53.154;18.136;2024-03-23T11:38:55;99419.02;;;6.46;100.00
25869;BME280;13688;53.154;18.136;2024-03-23T11:44:22;99413.81;;;6.44;100.00
25869;BME280;13688;53.154;18.136;2024-03-23T11:49:45;99412.25;;;6.42;100.00
25869;BME280;13688;53.154;18.136;2024-03-23T11:55:11;99406.94;;;6.30;100.00
25869;BME280;13688;53.154;18.136;2024-03-23T12:00:34;99408.41;;;6.12;100.00
25869;BME280;13688;53.154;18.136;2024-03-23T12:05:58;99401.52;;;6.10;100.00
25869;BME280;13688;53.154;18.136;2024-03-23T12:11:22;99394.59;;;6.18;100.00
25869;BME280;13688;53.154;18.136;2024-03-23T12:16:44;99376.98;;;6.16;100.00
25869;BME280;13688;53.154;18.136;2024-03-23T12:22:07;99356.73;;;6.13;100.00
25869;BME280;13688;53.154;18.136;2024-03-23T12:27:29;99348.38;;;6.18;100.00
25869;BME280;13688;53.154;18.136;2024-03-23T12:32:52;99347.98;;;6.22;100.00
25869;BME280;13688;53.154;18.136;2024-03-23T12:38:16;99364.03;;;6.11;100.00
25869;BME280;13688;53.154;18.136;2024-03-23T12:43:39;99369.73;;;5.95;100.00
25869;BME280;13688;53.154;18.136;2024-03-23T12:49:01;99339.93;;;5.90;100.00
25869;BME280;13688;53.154;18.136;2024-03-23T12:54:23;99343.54;;;5.89;100.00
25869;BME280;13688;53.154;18.136;2024-03-23T12:59:46;99345.36;;;5.66;100.00
25869;BME280;13688;53.154;18.136;2024-03-23T13:05:10;99330.94;;;5.46;100.00
25869;BME280;13688;53.154;18.136;2024-03-23T13:10:32;99295.55;;;5.56;100.00
25869;BME280;13688;53.154;18.136;2024-03-23T13:15:56;99272.79;;;5.52;100.00
25869;BME280;13688;53.154;18.136;2024-03-23T13:21:19;99241.30;;;5.34;100.00
25869;BME280;13688;53.154;18.136;2024-03-23T13:26:42;99263.09;;;5.17;100.00
25869;BME280;13688;53.154;18.136;2024-03-23T13:32:05;99287.91;;;5.06;100.00
25869;BME280;13688;53.154;18.136;2024-03-23T13:37:28;99302.67;;;4.99;100.00
25869;BME280;13688;53.154;18.136;2024-03-23T13:42:51;99298.19;;;5.00;100.00
25869;BME280;13688;53.154;18.136;2024-03-23T13:48:13;99296.23;;;4.91;100.00
25869;BME280;13688;53.154;18.136;2024-03-23T13:53:36;99304.22;;;4.91;100.00
25869;BME280;13688;53.154;18.136;2024-03-23T13:59:00;99294.28;;;4.81;100.00
25869;BME280;13688;53.154;18.136;2024-03-23T14:04:22;99309.59;;;4.55;100.00
25869;BME280;13688;53.154;18.136;2024-03-23T14:09:44;99322.46;;;4.38;100.00
25869;BME280;13688;53.154;18.136;2024-03-23T14:15:09;99330.77;;;4.33;100.00
25869;BME280;13688;53.154;18.136;2024-03-23T14:20:32;99348.91;;;4.28;100.00
25869;BME280;13688;53.154;18.136;2024-03-23T14:25:55;99349.81;;;4.16;100.00
25869;BME280;13688;53.154;18.136;2024-03-23T14:31:18;99377.74;;;3.97;100.00
25869;BME280;13688;53.154;18.136;2024-03-23T14:36:41;99375.40;;;3.93;100.00
25869;BME280;13688;53.154;18.136;2024-03-23T14:42:05;99382.34;;;3.83;100.00
25869;BME280;13688;53.154;18.136;2024-03-23T14:47:27;99395.55;;;3.71;100.00
25869;BME280;13688;53.154;18.136;2024-03-23T14:52:52;99405.55;;;3.68;100.00
25869;BME280;13688;53.154;18.136;2024-03-23T14:58:15;99423.19;;;3.56;100.00
25869;BME280;13688;53.154;18.136;2024-03-23T15:03:38;99459.24;;;3.60;100.00
25869;BME280;13688;53.154;18.136;2024-03-23T15:09:02;99467.00;;;3.63;100.00
25869;BME280;13688;53.154;18.136;2024-03-23T15:14:25;99473.27;;;3.62;100.00
25869;BME280;13688;53.154;18.136;2024-03-23T15:19:48;99478.36;;;3.65;100.00
25869;BME280;13688;53.154;18.136;2024-03-23T15:25:11;99466.55;;;3.57;100.00
25869;BME280;13688;53.154;18.136;2024-03-23T15:30:33;99460.73;;;3.52;100.00
25869;BME280;13688;53.154;18.136;2024-03-23T15:35:59;99495.16;;;3.40;100.00
25869;BME280;13688;53.154;18.136;2024-03-23T15:41:22;99510.98;;;3.42;100.00
25869;BME280;13688;53.154;18.136;2024-03-23T15:46:46;99523.19;;;3.32;100.00
25869;BME280;13688;53.154;18.136;2024-03-23T15:52:08;99547.73;;;3.35;100.00
25869;BME280;13688;53.154;18.136;2024-03-23T15:57:32;99527.55;;;3.33;100.00
25869;BME280;13688;53.154;18.136;2024-03-23T16:02:55;99530.09;;;3.34;100.00
25869;BME280;13688;53.154;18.136;2024-03-23T16:08:18;99525.95;;;3.30;100.00
25869;BME280;13688;53.154;18.136;2024-03-23T16:13:40;99533.58;;;3.22;100.00
25869;BME280;13688;53.154;18.136;2024-03-23T16:19:03;99554.33;;;3.30;100.00
25869;BME280;13688;53.154;18.136;2024-03-23T16:24:26;99583.66;;;3.28;100.00
25869;BME280;13688;53.154;18.136;2024-03-23T16:29:49;99580.33;;;3.25;100.00
25869;BME280;13688;53.154;18.136;2024-03-23T16:35:13;99596.06;;;3.28;100.00
25869;BME280;13688;53.154;18.136;2024-03-23T16:40:36;99577.28;;;3.31;100.00
25869;BME280;13688;53.154;18.136;2024-03-23T16:46:03;99583.66;;;3.28;100.00
25869;BME280;13688;53.154;18.136;2024-03-23T16:51:27;99591.41;;;3.31;100.00
25869;BME280;13688;53.154;18.136;2024-03-23T16:56:50;99593.61;;;3.25;100.00
25869;BME280;13688;53.154;18.136;2024-03-23T17:02:13;99564.25;;;3.13;100.00
25869;BME280;13688;53.154;18.136;2024-03-23T17:07:37;99547.01;;;3.06;100.00
25869;BME280;13688;53.154;18.136;2024-03-23T17:13:00;99542.30;;;2.97;100.00
25869;BME280;13688;53.154;18.136;2024-03-23T17:18:22;99573.80;;;2.89;100.00
25869;BME280;13688;53.154;18.136;2024-03-23T17:23:45;99572.95;;;2.88;100.00
25869;BME280;13688;53.154;18.136;2024-03-23T17:29:09;99587.97;;;2.75;100.00
25869;BME280;13688;53.154;18.136;2024-03-23T17:34:31;99597.47;;;2.65;100.00
25869;BME280;13688;53.154;18.136;2024-03-23T17:39:54;99588.75;;;2.63;100.00
25869;BME280;13688;53.154;18.136;2024-03-23T17:45:17;99570.28;;;2.62;100.00
25869;BME280;13688;53.154;18.136;2024-03-23T17:50:40;99588.38;;;2.55;100.00
25869;BME280;13688;53.154;18.136;2024-03-23T17:56:04;99604.40;;;2.53;100.00
25869;BME280;13688;53.154;18.136;2024-03-23T18:01:27;99604.97;;;2.44;100.00
25869;BME280;13688;53.154;18.136;2024-03-23T18:06:49;99623.05;;;2.38;100.00
25869;BME280;13688;53.154;18.136;2024-03-23T18:12:12;99629.02;;;2.27;100.00
25869;BME280;13688;53.154;18.136;2024-03-23T18:17:35;99641.04;;;2.18;100.00
25869;BME280;13688;53.154;18.136;2024-03-23T18:22:59;99640.38;;;2.15;100.00
25869;BME280;13688;53.154;18.136;2024-03-23T18:28:24;99629.19;;;2.10;100.00
25869;BME280;13688;53.154;18.136;2024-03-23T18:33:46;99654.45;;;2.01;100.00
25869;BME280;13688;53.154;18.136;2024-03-23T18:39:10;99653.15;;;2.08;100.00
25869;BME280;13688;53.154;18.136;2024-03-23T18:44:32;99648.68;;;1.94;100.00
25869;BME280;13688;53.154;18.136;2024-03-23T18:49:55;99655.53;;;1.83;100.00
25869;BME280;13688;53.154;18.136;2024-03-23T18:55:18;99652.73;;;1.86;100.00
25869;BME280;13688;53.154;18.136;2024-03-23T19:00:41;99703.34;;;1.81;100.00
25869;BME280;13688;53.154;18.136;2024-03-23T19:06:06;99778.30;;;1.83;100.00
25869;BME280;13688;53.154;18.136;2024-03-23T19:11:29;99787.05;;;1.85;100.00
25869;BME280;13688;53.154;18.136;2024-03-23T19:16:51;99747.39;;;1.68;100.00
25869;BME280;13688;53.154;18.136;2024-03-23T19:22:14;99750.14;;;1.66;100.00
25869;BME280;13688;53.154;18.136;2024-03-23T19:27:36;99722.36;;;1.58;100.00
25869;BME280;13688;53.154;18.136;2024-03-23T19:33:00;99737.83;;;1.65;100.00
25869;BME280;13688;53.154;18.136;2024-03-23T19:38:23;99738.84;;;1.63;100.00
25869;BME280;13688;53.154;18.136;2024-03-23T19:43:45;99739.88;;;1.60;100.00
25869;BME280;13688;53.154;18.136;2024-03-23T19:49:08;99782.27;;;1.60;100.00
25869;BME280;13688;53.154;18.136;2024-03-23T19:54:33;99779.37;;;1.65;100.00
25869;BME280;13688;53.154;18.136;2024-03-23T19:59:56;99786.38;;;1.66;100.00
25869;BME280;13688;53.154;18.136;2024-03-23T20:05:18;99805.93;;;1.63;100.00
25869;BME280;13688;53.154;18.136;2024-03-23T20:10:47;99775.88;;;1.64;100.00
25869;BME280;13688;53.154;18.136;2024-03-23T20:16:10;99775.27;;;1.59;100.00
25869;BME280;13688;53.154;18.136;2024-03-23T20:21:33;99783.48;;;1.55;100.00
25869;BME280;13688;53.154;18.136;2024-03-23T20:26:55;99786.55;;;1.47;100.00
25869;BME280;13688;53.154;18.136;2024-03-23T20:32:18;99756.80;;;1.42;100.00
25869;BME280;13688;53.154;18.136;2024-03-23T20:37:41;99757.72;;;1.25;100.00
25869;BME280;13688;53.154;18.136;2024-03-23T20:43:07;99739.63;;;1.18;100.00
25869;BME280;13688;53.154;18.136;2024-03-23T20:48:32;99762.16;;;1.09;100.00
25869;BME280;13688;53.154;18.136;2024-03-23T20:53:56;99740.27;;;1.05;100.00
25869;BME280;13688;53.154;18.136;2024-03-23T20:59:20;99740.72;;;0.98;100.00
25869;BME280;13688;53.154;18.136;2024-03-23T21:04:43;99737.77;;;0.86;100.00
25869;BME280;13688;53.154;18.136;2024-03-23T21:10:06;99726.50;;;0.83;100.00
25869;BME280;13688;53.154;18.136;2024-03-23T21:15:29;99719.99;;;0.73;100.00
25869;BME280;13688;53.154;18.136;2024-03-23T21:20:58;99699.86;;;0.70;100.00
25869;BME280;13688;53.154;18.136;2024-03-23T21:26:21;99703.53;;;0.68;100.00
25869;BME280;13688;53.154;18.136;2024-03-23T21:31:43;99701.38;;;0.59;100.00
25869;BME280;13688;53.154;18.136;2024-03-23T21:37:06;99698.38;;;0.65;100.00
25869;BME280;13688;53.154;18.136;2024-03-23T21:42:28;99698.29;;;0.66;100.00
25869;BME280;13688;53.154;18.136;2024-03-23T21:47:52;99686.27;;;0.61;100.00
25869;BME280;13688;53.154;18.136;2024-03-23T21:53:15;99687.56;;;0.69;100.00
25869;BME280;13688;53.154;18.136;2024-03-23T21:58:37;99682.28;;;0.69;100.00
25869;BME280;13688;53.154;18.136;2024-03-23T22:04:00;99669.64;;;0.74;100.00
25869;BME280;13688;53.154;18.136;2024-03-23T22:09:22;99666.98;;;0.74;100.00
25869;BME280;13688;53.154;18.136;2024-03-23T22:14:45;99665.20;;;0.75;100.00
25869;BME280;13688;53.154;18.136;2024-03-23T22:20:07;99659.81;;;0.76;100.00
25869;BME280;13688;53.154;18.136;2024-03-23T22:25:30;99651.64;;;0.81;100.00
25869;BME280;13688;53.154;18.136;2024-03-23T22:31:01;99656.17;;;0.79;100.00
25869;BME280;13688;53.154;18.136;2024-03-23T22:36:24;99638.15;;;0.85;100.00
25869;BME280;13688;53.154;18.136;2024-03-23T22:41:46;99641.15;;;0.79;100.00
25869;BME280;13688;53.154;18.136;2024-03-23T22:47:09;99643.09;;;0.76;100.00
25869;BME280;13688;53.154;18.136;2024-03-23T22:52:31;99641.56;;;0.72;100.00
25869;BME280;13688;53.154;18.136;2024-03-23T22:57:53;99633.63;;;0.72;100.00
25869;BME280;13688;53.154;18.136;2024-03-23T23:03:17;99632.95;;;0.84;100.00
25869;BME280;13688;53.154;18.136;2024-03-23T23:08:42;99631.77;;;0.90;100.00
25869;BME280;13688;53.154;18.136;2024-03-23T23:14:04;99634.32;;;0.91;100.00
25869;BME280;13688;53.154;18.136;2024-03-23T23:19:27;99630.82;;;0.91;100.00
25869;BME280;13688;53.154;18.136;2024-03-23T23:24:49;99627.84;;;0.97;100.00
25869;BME280;13688;53.154;18.136;2024-03-23T23:30:12;99624.67;;;0.90;100.00
25869;BME280;13688;53.154;18.136;2024-03-23T23:35:35;99627.41;;;0.89;100.00
25869;BME280;13688;53.154;18.136;2024-03-23T23:40:58;99627.84;;;0.97;100.00
25869;BME280;13688;53.154;18.136;2024-03-23T23:46:21;99622.89;;;1.06;100.00
25869;BME280;13688;53.154;18.136;2024-03-23T23:51:43;99618.94;;;1.13;100.00
25869;BME280;13688;53.154;18.136;2024-03-23T23:57:06;99619.27;;;1.23;100.00
